createdAt,value
2019-02-17T00:02:25.399Z,10.59
2019-02-17T00:05:44.159Z,10.71
2019-02-17T00:08:52.681Z,10.60
2019-02-17T00:12:01.406Z,10.66
2019-02-17T00:15:10.315Z,10.67
2019-02-17T00:18:18.937Z,10.66
2019-02-17T00:21:27.835Z,10.63
2019-02-17T00:24:36.515Z,10.71
2019-02-17T00:27:45.782Z,10.75
2019-02-17T00:30:54.516Z,10.77
2019-02-17T00:34:03.139Z,10.82
2019-02-17T00:37:11.207Z,10.79
2019-02-17T00:40:19.908Z,10.79
2019-02-17T00:43:38.774Z,10.85
2019-02-17T00:46:47.396Z,10.82
2019-02-17T00:49:56.100Z,10.76
2019-02-17T00:53:04.754Z,10.81
2019-02-17T00:56:13.363Z,10.90
2019-02-17T00:59:22.073Z,10.87
2019-02-17T01:02:30.674Z,10.91
2019-02-17T01:05:39.181Z,11.03
2019-02-17T01:08:58.134Z,11.12
2019-02-17T01:12:06.743Z,11.08
2019-02-17T01:15:15.560Z,11.08
2019-02-17T01:18:24.363Z,11.16
2019-02-17T01:21:33.131Z,11.10
2019-02-17T01:24:41.741Z,11.07
2019-02-17T01:27:50.341Z,11.06
2019-02-17T01:30:59.045Z,11.13
2019-02-17T01:34:11.697Z,11.09
2019-02-17T01:37:20.303Z,11.16
2019-02-17T01:40:29.019Z,11.10
2019-02-17T01:43:37.632Z,11.08
2019-02-17T01:46:46.253Z,11.10
2019-02-17T01:49:54.997Z,11.01
2019-02-17T01:53:03.588Z,11.05
2019-02-17T01:56:22.369Z,11.08
2019-02-17T01:59:31.114Z,10.97
2019-02-17T02:02:39.779Z,10.87
2019-02-17T02:05:48.403Z,10.76
2019-02-17T02:08:56.994Z,10.60
2019-02-17T02:12:05.981Z,10.60
2019-02-17T02:15:14.787Z,10.49
2019-02-17T02:18:23.340Z,10.40
2019-02-17T02:21:31.953Z,10.39
2019-02-17T02:24:40.444Z,10.29
2019-02-17T02:27:59.252Z,10.27
2019-02-17T02:31:07.998Z,10.15
2019-02-17T02:34:16.560Z,10.05
2019-02-17T02:37:25.173Z,9.98
2019-02-17T02:40:33.862Z,9.98
2019-02-17T02:43:42.458Z,9.94
2019-02-17T02:46:50.966Z,9.91
2019-02-17T02:50:12.351Z,9.91
2019-02-17T02:53:20.877Z,9.85
2019-02-17T02:56:29.493Z,9.83
2019-02-17T02:59:52.450Z,9.90
2019-02-17T03:02:58.753Z,9.83
2019-02-17T03:06:24.891Z,9.89
2019-02-17T03:09:33.595Z,9.93
2019-02-17T03:12:42.213Z,9.97
2019-02-17T03:15:50.799Z,9.95
2019-02-17T03:18:59.949Z,10.03
2019-02-17T03:22:08.584Z,10.08
2019-02-17T03:25:17.185Z,10.12
2019-02-17T03:28:24.204Z,10.20
2019-02-17T03:31:32.881Z,10.19
2019-02-17T03:34:41.755Z,10.21
2019-02-17T03:38:00.572Z,10.25
2019-02-17T03:41:09.283Z,10.18
2019-02-17T03:44:19.215Z,10.07
2019-02-17T03:47:27.836Z,10.19
2019-02-17T03:50:36.478Z,10.25
2019-02-17T03:53:45.001Z,10.20
2019-02-17T03:57:03.913Z,10.21
2019-02-17T04:00:16.984Z,10.18
2019-02-17T04:03:23.032Z,10.16
2019-02-17T04:06:31.637Z,10.07
2019-02-17T04:09:40.319Z,10.15
2019-02-17T04:12:48.925Z,10.13
2019-02-17T04:15:57.428Z,10.12
2019-02-17T04:19:06.041Z,10.19
2019-02-17T04:22:24.849Z,10.29
2019-02-17T04:25:33.476Z,10.27
2019-02-17T04:28:42.001Z,10.24
2019-02-17T04:31:50.716Z,10.24
2019-02-17T04:34:59.348Z,10.20
2019-02-17T04:38:07.983Z,10.20
2019-02-17T04:41:18.194Z,10.23
2019-02-17T04:44:37.012Z,10.32
2019-02-17T04:47:45.645Z,10.27
2019-02-17T04:50:54.309Z,10.32
2019-02-17T04:54:02.924Z,10.29
2019-02-17T04:57:11.498Z,10.28
2019-02-17T05:00:20.213Z,10.26
2019-02-17T05:03:28.827Z,10.19
2019-02-17T05:06:47.550Z,10.23
2019-02-17T05:09:56.203Z,10.13
2019-02-17T05:13:04.735Z,10.13
2019-02-17T05:16:13.240Z,10.08
2019-02-17T05:19:21.865Z,9.95
2019-02-17T05:22:40.647Z,9.90
2019-02-17T05:25:49.234Z,9.83
2019-02-17T05:28:57.857Z,9.60
2019-02-17T05:32:06.466Z,9.60
2019-02-17T05:35:15.071Z,9.58
2019-02-17T05:38:24.788Z,9.63
2019-02-17T05:41:33.482Z,9.57
2019-02-17T05:44:41.993Z,9.40
2019-02-17T05:47:50.596Z,9.16
2019-02-17T05:50:59.465Z,9.18
2019-02-17T05:54:07.956Z,9.03
2019-02-17T05:57:16.547Z,8.78
2019-02-17T06:00:28.954Z,8.75
2019-02-17T06:03:37.548Z,8.79
2019-02-17T06:06:46.020Z,8.58
2019-02-17T06:10:06.211Z,8.46
2019-02-17T06:13:14.848Z,8.20
2019-02-17T06:16:23.487Z,8.16
2019-02-17T06:19:30.711Z,8.05
2019-02-17T06:22:39.180Z,7.88
2019-02-17T06:25:47.770Z,7.62
2019-02-17T06:29:06.533Z,7.66
2019-02-17T06:32:15.113Z,7.62
2019-02-17T06:35:23.626Z,7.60
2019-02-17T06:38:32.212Z,7.61
2019-02-17T06:41:40.878Z,7.39
2019-02-17T06:44:49.388Z,7.13
2019-02-17T06:48:08.595Z,7.15
2019-02-17T06:51:17.292Z,7.03
2019-02-17T06:54:25.811Z,7.04
2019-02-17T06:57:38.443Z,6.88
2019-02-17T07:00:49.523Z,6.86
2019-02-17T07:03:58.116Z,6.85
2019-02-17T07:07:07.214Z,7.03
2019-02-17T07:10:15.851Z,6.98
2019-02-17T07:13:24.465Z,6.71
2019-02-17T07:16:33.051Z,6.79
2019-02-17T07:19:52.011Z,7.00
2019-02-17T07:23:00.479Z,6.92
2019-02-17T07:26:09.091Z,6.67
2019-02-17T07:29:17.738Z,6.83
2019-02-17T07:32:26.234Z,6.99
2019-02-17T07:35:34.856Z,6.75
2019-02-17T07:38:53.722Z,6.79
2019-02-17T07:42:02.399Z,6.59
2019-02-17T07:45:10.980Z,6.58
2019-02-17T07:48:19.572Z,6.53
2019-02-17T07:51:32.994Z,6.57
2019-02-17T07:54:41.542Z,6.80
2019-02-17T07:58:00.332Z,6.85
2019-02-17T08:01:08.999Z,7.05
2019-02-17T08:04:17.485Z,6.76
2019-02-17T08:07:26.080Z,6.95
2019-02-17T08:10:34.742Z,7.13
2019-02-17T08:13:43.337Z,7.28
2019-02-17T08:16:51.923Z,7.05
2019-02-17T08:20:12.783Z,7.04
2019-02-17T08:23:21.254Z,7.30
2019-02-17T08:26:29.891Z,7.15
2019-02-17T08:29:38.563Z,7.36
2019-02-17T08:32:47.181Z,7.36
2019-02-17T08:35:55.804Z,7.72
2019-02-17T08:39:05.582Z,7.75
2019-02-17T08:42:14.224Z,8.08
2019-02-17T08:45:22.812Z,8.43
2019-02-17T08:48:31.417Z,8.78
2019-02-17T08:51:40.042Z,9.43
2019-02-17T08:54:48.617Z,9.64
2019-02-17T08:57:57.373Z,9.88
2019-02-17T09:01:06.013Z,10.07
2019-02-17T09:04:24.819Z,9.75
2019-02-17T09:07:33.321Z,9.71
2019-02-17T09:10:41.926Z,9.95
2019-02-17T09:13:50.552Z,10.25
2019-02-17T09:16:59.042Z,10.63
2019-02-17T09:20:17.921Z,11.10
2019-02-17T09:23:26.458Z,11.30
2019-02-17T09:26:34.984Z,11.63
2019-02-17T09:29:43.608Z,12.03
2019-02-17T09:32:52.110Z,12.35
2019-02-17T09:36:10.740Z,13.37
2019-02-17T09:39:19.391Z,13.29
2019-02-17T09:42:27.952Z,13.84
2019-02-17T09:45:36.513Z,14.10
2019-02-17T09:48:45.121Z,14.64
2019-02-17T09:51:53.717Z,15.22
2019-02-17T09:55:12.491Z,15.54
2019-02-17T09:58:21.955Z,14.97
2019-02-17T10:01:42.665Z,15.30
2019-02-17T10:04:50.971Z,15.15
2019-02-17T10:07:59.882Z,15.35
2019-02-17T10:11:08.971Z,15.43
2019-02-17T10:14:17.893Z,15.21
2019-02-17T10:17:28.204Z,15.10
2019-02-17T10:20:36.811Z,14.62
2019-02-17T10:23:45.420Z,14.53
2019-02-17T10:26:54.331Z,14.26
2019-02-17T10:30:03.590Z,14.19
2019-02-17T10:33:12.973Z,14.35
2019-02-17T10:36:21.494Z,14.47
2019-02-17T10:39:31.650Z,14.08
2019-02-17T10:42:50.466Z,13.94
2019-02-17T10:45:59.042Z,14.14
2019-02-17T10:49:07.768Z,14.21
2019-02-17T10:52:16.393Z,14.64
2019-02-17T10:55:24.873Z,14.52
2019-02-17T10:58:33.399Z,14.69
2019-02-17T11:01:52.287Z,14.88
2019-02-17T11:05:00.840Z,14.78
2019-02-17T11:08:09.463Z,15.11
2019-02-17T11:11:18.027Z,15.26
2019-02-17T11:14:26.535Z,14.85
2019-02-17T11:17:45.148Z,14.86
2019-02-17T11:20:53.696Z,14.77
2019-02-17T11:24:02.225Z,15.24
2019-02-17T11:27:10.849Z,15.96
2019-02-17T11:30:19.612Z,17.18
2019-02-17T11:33:28.249Z,17.86
2019-02-17T11:36:36.860Z,18.49
2019-02-17T11:39:55.813Z,18.90
2019-02-17T11:43:04.447Z,18.96
2019-02-17T11:46:13.187Z,18.47
2019-02-17T11:49:21.909Z,18.88
2019-02-17T11:52:32.339Z,19.77
2019-02-17T11:55:40.482Z,19.38
2019-02-17T11:58:49.082Z,19.41
2019-02-17T12:02:27.090Z,20.66
2019-02-17T12:05:35.704Z,21.31
2019-02-17T12:08:48.883Z,20.79
2019-02-17T12:11:57.475Z,20.93
2019-02-17T12:15:06.790Z,21.32
2019-02-17T12:18:15.666Z,20.97
2019-02-17T12:21:52.031Z,21.95
2019-02-17T12:25:07.271Z,21.56
2019-02-17T12:28:23.819Z,21.78
2019-02-17T12:31:36.487Z,21.33
2019-02-17T12:34:55.285Z,22.16
2019-02-17T12:38:03.780Z,22.83
2019-02-17T12:41:12.443Z,22.96
2019-02-17T12:44:21.097Z,22.97
2019-02-17T12:47:29.713Z,22.83
2019-02-17T12:50:38.369Z,22.13
2019-02-17T12:53:47.883Z,22.73
2019-02-17T12:56:56.932Z,22.99
2019-02-17T13:00:07.014Z,22.17
2019-02-17T13:03:16.073Z,22.09
2019-02-17T13:06:26.562Z,22.29
2019-02-17T13:09:34.965Z,22.51
2019-02-17T13:12:43.590Z,23.29
2019-02-17T13:15:52.101Z,22.98
2019-02-17T13:19:00.685Z,23.98
2019-02-17T13:22:19.828Z,24.62
2019-02-17T13:25:38.797Z,23.99
2019-02-17T13:28:47.426Z,24.63
2019-02-17T13:31:56.084Z,24.42
2019-02-17T13:35:05.194Z,25.27
2019-02-17T13:38:13.751Z,25.00
2019-02-17T13:41:22.412Z,24.45
2019-02-17T13:44:30.985Z,24.68
2019-02-17T13:47:39.508Z,24.90
2019-02-17T13:50:58.222Z,24.70
2019-02-17T13:54:06.898Z,24.71
2019-02-17T13:57:15.453Z,25.23
2019-02-17T14:00:24.149Z,25.24
2019-02-17T14:03:32.655Z,25.26
2019-02-17T14:06:41.762Z,24.77
2019-02-17T14:09:50.355Z,23.58
2019-02-17T14:12:58.891Z,23.62
2019-02-17T14:16:07.534Z,22.89
2019-02-17T14:19:26.308Z,22.30
2019-02-17T14:22:34.930Z,21.78
2019-02-17T14:25:43.649Z,21.64
2019-02-17T14:28:52.311Z,20.27
2019-02-17T14:32:00.846Z,19.99
2019-02-17T14:35:09.696Z,19.62
2019-02-17T14:38:18.378Z,19.50
2019-02-17T14:41:27.132Z,19.20
2019-02-17T14:44:35.790Z,18.49
2019-02-17T14:47:45.636Z,18.28
2019-02-17T14:50:54.524Z,17.97
2019-02-17T14:54:03.348Z,18.06
2019-02-17T14:57:13.168Z,17.95
2019-02-17T15:00:21.721Z,17.87
2019-02-17T15:03:30.332Z,17.78
2019-02-17T15:06:44.129Z,17.59
2019-02-17T15:09:54.193Z,17.54
2019-02-17T15:13:02.832Z,16.99
2019-02-17T15:16:21.748Z,17.17
2019-02-17T15:19:30.491Z,17.16
2019-02-17T15:22:39.012Z,17.11
2019-02-17T15:25:47.611Z,17.04
2019-02-17T15:28:56.208Z,16.91
2019-02-17T15:32:04.775Z,16.43
2019-02-17T15:35:27.714Z,16.18
2019-02-17T15:38:43.451Z,16.01
2019-02-17T15:41:52.569Z,15.99
2019-02-17T15:45:01.188Z,16.00
2019-02-17T15:48:09.982Z,15.90
2019-02-17T15:51:18.672Z,15.66
2019-02-17T15:54:29.829Z,15.56
2019-02-17T15:57:38.862Z,15.50
2019-02-17T16:00:47.505Z,15.48
2019-02-17T16:03:56.108Z,15.18
2019-02-17T16:07:04.736Z,15.04
2019-02-17T16:10:13.466Z,15.01
2019-02-17T16:13:23.192Z,14.97
2019-02-17T16:16:42.228Z,15.10
2019-02-17T16:19:50.938Z,14.93
2019-02-17T16:22:59.456Z,14.99
2019-02-17T16:26:07.950Z,14.73
2019-02-17T16:29:15.056Z,14.75
2019-02-17T16:32:23.594Z,14.55
2019-02-17T16:35:42.305Z,14.45
2019-02-17T16:38:50.916Z,14.43
2019-02-17T16:41:59.570Z,14.47
2019-02-17T16:45:11.145Z,14.26
2019-02-17T16:48:19.768Z,14.27
2019-02-17T16:51:28.439Z,14.17
2019-02-17T16:54:54.811Z,14.06
2019-02-17T16:58:03.518Z,13.98
2019-02-17T17:01:12.202Z,13.98
2019-02-17T17:04:21.490Z,13.85
2019-02-17T17:07:28.552Z,13.80
2019-02-17T17:10:37.204Z,13.69
2019-02-17T17:13:45.854Z,13.60
2019-02-17T17:16:54.518Z,13.47
2019-02-17T17:20:03.149Z,13.14
2019-02-17T17:23:11.674Z,13.18
2019-02-17T17:26:20.185Z,13.19
2019-02-17T17:29:46.528Z,13.05
2019-02-17T17:32:56.664Z,13.06
2019-02-17T17:36:05.473Z,13.02
2019-02-17T17:39:14.055Z,12.98
2019-02-17T17:42:22.606Z,12.94
2019-02-17T17:45:31.276Z,12.88
2019-02-17T17:48:39.751Z,12.79
2019-02-17T17:52:01.389Z,12.46
2019-02-17T17:55:10.376Z,12.51
2019-02-17T17:58:18.890Z,12.52
2019-02-17T18:01:27.573Z,12.29
2019-02-17T18:04:36.159Z,12.32
2019-02-17T18:07:44.697Z,12.35
2019-02-17T18:10:53.343Z,12.41
2019-02-17T18:14:01.921Z,12.14
2019-02-17T18:17:24.753Z,12.16
2019-02-17T18:20:33.361Z,12.19
2019-02-17T18:23:42.245Z,12.10
2019-02-17T18:26:50.770Z,12.03
2019-02-17T18:30:00.355Z,12.05
2019-02-17T18:33:19.299Z,11.99
2019-02-17T18:36:28.059Z,11.91
2019-02-17T18:39:36.650Z,11.81
2019-02-17T18:42:47.052Z,11.80
2019-02-17T18:45:55.625Z,11.72
2019-02-17T18:49:04.234Z,11.70
2019-02-17T18:52:12.894Z,11.63
2019-02-17T18:55:22.016Z,11.61
2019-02-17T18:58:30.689Z,11.49
2019-02-17T19:01:39.935Z,11.42
2019-02-17T19:04:48.435Z,11.37
2019-02-17T19:07:56.953Z,11.33
2019-02-17T19:11:05.563Z,11.31
2019-02-17T19:14:24.311Z,11.05
2019-02-17T19:17:33.103Z,10.99
2019-02-17T19:20:41.837Z,11.00
2019-02-17T19:23:50.375Z,10.88
2019-02-17T19:26:58.982Z,10.99
2019-02-17T19:30:08.462Z,10.85
2019-02-17T19:33:16.972Z,10.80
2019-02-17T19:36:25.614Z,10.79
2019-02-17T19:39:34.320Z,10.81
2019-02-17T19:42:42.963Z,10.80
2019-02-17T19:45:51.443Z,10.60
2019-02-17T19:49:00.080Z,10.60
2019-02-17T19:52:18.867Z,10.56
2019-02-17T19:55:27.379Z,10.36
2019-02-17T19:58:36.001Z,10.29
2019-02-17T20:01:44.725Z,10.32
2019-02-17T20:05:06.956Z,10.28
2019-02-17T20:08:17.046Z,10.34
2019-02-17T20:11:25.664Z,10.15
2019-02-17T20:14:34.287Z,10.12
2019-02-17T20:17:43.037Z,10.26
2019-02-17T20:20:51.718Z,10.31
2019-02-17T20:24:00.330Z,10.25
2019-02-17T20:27:08.911Z,10.27
2019-02-17T20:30:27.854Z,10.25
2019-02-17T20:33:36.356Z,9.93
2019-02-17T20:36:44.872Z,9.92
2019-02-17T20:39:53.622Z,9.57
2019-02-17T20:43:02.213Z,9.64
2019-02-17T20:46:10.830Z,9.49
2019-02-17T20:49:29.724Z,9.50
2019-02-17T20:52:38.243Z,9.54
2019-02-17T20:55:46.752Z,9.55
2019-02-17T20:58:56.375Z,9.56
2019-02-17T21:02:15.347Z,9.62
2019-02-17T21:05:23.948Z,9.60
2019-02-17T21:08:32.567Z,9.61
2019-02-17T21:11:41.229Z,9.59
2019-02-17T21:14:49.828Z,9.55
2019-02-17T21:17:58.429Z,9.55
2019-02-17T21:21:07.101Z,9.35
2019-02-17T21:24:25.963Z,9.34
2019-02-17T21:27:34.465Z,9.03
2019-02-17T21:30:43.167Z,9.10
2019-02-17T21:33:51.756Z,9.14
2019-02-17T21:37:00.292Z,9.11
2019-02-17T21:40:11.538Z,8.93
2019-02-17T21:43:20.040Z,8.97
2019-02-17T21:46:28.676Z,8.95
2019-02-17T21:49:37.425Z,8.90
2019-02-17T21:52:45.901Z,8.73
2019-02-17T21:55:54.537Z,8.59
2019-02-17T21:59:13.310Z,8.67
2019-02-17T22:02:22.093Z,8.69
2019-02-17T22:05:30.705Z,8.73
2019-02-17T22:08:39.322Z,8.70
2019-02-17T22:11:48.005Z,8.45
2019-02-17T22:14:56.620Z,8.37
2019-02-17T22:18:05.200Z,8.32
2019-02-17T22:21:13.904Z,8.43
2019-02-17T22:24:32.614Z,8.39
2019-02-17T22:27:41.213Z,8.33
2019-02-17T22:30:49.959Z,8.25
2019-02-17T22:33:58.545Z,8.28
2019-02-17T22:37:07.133Z,8.21
2019-02-17T22:40:16.009Z,8.24
2019-02-17T22:43:24.605Z,8.17
2019-02-17T22:46:33.122Z,8.09
2019-02-17T22:49:52.065Z,7.97
2019-02-17T22:53:00.665Z,7.85
2019-02-17T22:56:09.317Z,7.93
2019-02-17T22:59:17.973Z,7.98
2019-02-17T23:02:26.863Z,7.89
2019-02-17T23:05:35.371Z,7.86
2019-02-17T23:08:43.944Z,7.85
2019-02-17T23:11:52.647Z,7.83
2019-02-17T23:15:11.522Z,7.93
2019-02-17T23:18:20.131Z,7.82
2019-02-17T23:21:28.948Z,7.71
2019-02-17T23:24:37.530Z,7.60
2019-02-17T23:27:46.330Z,7.62
2019-02-17T23:30:55.025Z,7.65
2019-02-17T23:34:03.608Z,7.70
2019-02-17T23:37:12.220Z,7.69
2019-02-17T23:40:20.867Z,7.64
2019-02-17T23:43:29.479Z,7.63
2019-02-17T23:46:48.408Z,7.55
2019-02-17T23:49:56.983Z,7.48
2019-02-17T23:53:05.614Z,7.48
2019-02-17T23:56:14.199Z,7.47
2019-02-17T23:59:22.895Z,7.42
